Time,TemperatureF,DewpointF,PressureIn,WindDirection,WindDirectionDegrees,WindSpeedMPH,WindSpeedGustMPH,Humidity,HourlyPrecipIn,Conditions,Clouds,dailyrainin,SoftwareType,DateUTC
2013-01-04 00:00:00,1.0,-5.1,29.99,West,274,0.0,0.0,75,0.00,CLR,,0.00,WeatherDisplay:10.37,2013-01-04 05:00:00,
2013-01-04 00:30:00,0.4,-5.7,29.98,West,275,0.0,0.0,75,0.00,CLR,,0.00,WeatherDisplay:10.37,2013-01-04 05:30:00,
2013-01-04 01:00:00,0.4,-5.4,29.97,West,275,0.0,1.0,76,0.00,CLR,,0.00,WeatherDisplay:10.37,2013-01-04 06:00:00,
2013-01-04 01:30:00,-0.2,-6.0,29.97,West,274,0.0,1.0,76,0.00,CLR,,0.00,WeatherDisplay:10.37,2013-01-04 06:30:00,
2013-01-04 02:00:00,-0.3,-5.8,29.97,West,274,0.0,0.0,77,0.00,CLR,,0.00,WeatherDisplay:10.37,2013-01-04 07:00:00,
2013-01-04 02:30:00,-0.2,-5.7,29.97,West,274,0.0,0.0,77,0.00,OVC,,0.00,WeatherDisplay:10.37,2013-01-04 07:30:00,
2013-01-04 03:00:00,-0.3,-5.8,29.96,West,275,0.0,0.0,77,0.00,OVC,,0.00,WeatherDisplay:10.37,2013-01-04 08:00:00,
2013-01-04 03:30:00,-0.3,-5.8,29.95,West,275,0.0,1.0,77,0.00,FEW,,0.00,WeatherDisplay:10.37,2013-01-04 08:30:00,
2013-01-04 04:00:00,-0.3,-5.8,29.95,West,274,0.0,1.0,77,0.00,FEW,,0.00,WeatherDisplay:10.37,2013-01-04 09:00:00,
2013-01-04 04:30:00,-0.5,-6.0,29.95,West,275,0.0,1.0,77,0.00,CLR,,0.00,WeatherDisplay:10.37,2013-01-04 09:30:00,
2013-01-04 05:00:00,-1.1,-6.6,29.94,West,275,0.0,1.0,77,0.00,CLR,,0.00,WeatherDisplay:10.37,2013-01-04 10:00:00,
2013-01-04 05:30:00,-0.7,-5.9,29.95,West,275,0.0,0.0,78,0.00,CLR,,0.00,WeatherDisplay:10.37,2013-01-04 10:30:00,
2013-01-04 06:00:00,0.6,-4.4,29.95,West,275,0.0,0.0,79,0.00,CLR,,0.00,WeatherDisplay:10.37,2013-01-04 11:00:00,
2013-01-04 06:30:00,2.1,-3.2,29.95,West,275,0.0,1.0,78,0.00,OVC,,0.00,WeatherDisplay:10.37,2013-01-04 11:30:00,
2013-01-04 07:00:00,3.5,-1.9,29.96,West,275,0.0,2.0,78,0.00,OVC,,0.00,WeatherDisplay:10.37,2013-01-04 12:00:00,
2013-01-04 07:30:00,4.5,-1.4,29.96,West,275,0.0,2.0,76,0.00,OVC,,0.00,WeatherDisplay:10.37,2013-01-04 12:30:00,
2013-01-04 08:00:00,5.6,-0.1,29.94,West,275,0.0,1.0,77,0.00,OVC,,0.00,WeatherDisplay:10.37,2013-01-04 13:00:00,
2013-01-04 08:30:00,7.1,1.7,29.93,West,276,0.0,2.0,78,0.00,OVC,,0.00,WeatherDisplay:10.37,2013-01-04 13:30:00,
2013-01-04 09:00:00,9.6,3.8,29.92,West,276,0.0,1.0,77,0.00,OVC,,0.00,WeatherDisplay:10.37,2013-01-04 14:00:00,
2013-01-04 09:30:00,12.5,7.0,29.92,WSW,256,2.0,6.0,78,0.00,OVC,,0.00,WeatherDisplay:10.37,2013-01-04 14:30:00,
2013-01-04 10:00:00,17.8,12.7,29.91,SW,221,1.0,7.0,80,0.00,OVC,,0.00,WeatherDisplay:10.37,2013-01-04 15:00:00,
2013-01-04 10:30:00,22.0,15.6,29.90,SSW,208,2.0,7.0,76,0.00,FEW,,0.00,WeatherDisplay:10.37,2013-01-04 15:30:00,
2013-01-04 11:00:00,26.1,17.6,29.87,SSE,161,6.0,10.0,70,0.00,FEW,,0.00,WeatherDisplay:10.37,2013-01-04 16:00:00,
2013-01-04 11:30:00,28.5,18.6,29.86,SW,219,2.0,10.0,66,0.00,BKN,,0.00,WeatherDisplay:10.37,2013-01-04 16:30:00,
2013-01-04 12:00:00,31.6,18.9,29.82,SSE,154,3.0,7.0,59,0.00,BKN,,0.00,WeatherDisplay:10.37,2013-01-04 17:00:00,
2013-01-04 12:30:00,33.5,19.4,29.80,SSW,213,5.0,12.0,56,0.00,CLR,,0.00,WeatherDisplay:10.37,2013-01-04 17:30:00,
2013-01-04 13:00:00,34.8,19.8,29.79,SW,220,1.0,12.0,54,0.00,CLR,,0.00,WeatherDisplay:10.37,2013-01-04 18:00:00,
2013-01-04 13:30:00,36.5,20.5,29.79,WSW,252,3.0,13.0,52,0.00,CLR,,0.00,WeatherDisplay:10.37,2013-01-04 18:30:00,
2013-01-04 14:00:00,37.6,20.1,29.79,West,270,7.0,22.0,49,0.00,CLR,,0.00,WeatherDisplay:10.37,2013-01-04 19:00:00,
2013-01-04 14:30:00,37.0,19.6,29.80,WNW,282,10.0,24.0,49,0.00,CLR,,0.00,WeatherDisplay:10.37,2013-01-04 19:30:00,
2013-01-04 15:00:00,36.7,19.3,29.80,WNW,291,6.0,25.0,49,0.00,CLR,,0.00,WeatherDisplay:10.37,2013-01-04 20:00:00,
2013-01-04 15:30:00,35.9,20.0,29.80,WNW,290,3.0,16.0,52,0.00,OVC,,0.00,WeatherDisplay:10.37,2013-01-04 20:30:00,
2013-01-04 16:00:00,35.2,20.2,29.81,West,280,5.0,16.0,54,0.00,OVC,,0.00,WeatherDisplay:10.37,2013-01-04 21:00:00,
2013-01-04 16:30:00,34.2,19.7,29.80,West,264,5.0,12.0,55,0.00,SCT,,0.00,WeatherDisplay:10.37,2013-01-04 21:30:00,
2013-01-04 17:00:00,33.2,20.0,29.80,SW,234,2.0,9.0,58,0.00,SCT,,0.00,WeatherDisplay:10.37,2013-01-04 22:00:00,
2013-01-04 17:30:00,33.2,20.0,29.80,SW,226,3.0,10.0,58,0.00,OVC,,0.00,WeatherDisplay:10.37,2013-01-04 22:30:00,
2013-01-04 18:00:00,33.2,19.6,29.80,WSW,250,3.0,12.0,57,0.00,OVC,,0.00,WeatherDisplay:10.37,2013-01-04 23:00:00,
2013-01-04 18:30:00,32.8,20.0,29.81,SW,235,1.0,10.0,59,0.00,OVC,,0.00,WeatherDisplay:10.37,2013-01-04 23:30:00,
2013-01-04 19:00:00,32.6,19.8,29.81,WSW,238,2.0,12.0,59,0.00,OVC,,0.00,WeatherDisplay:10.37,2013-01-05 00:00:00,
2013-01-04 19:30:00,32.8,20.4,29.81,WSW,245,5.0,12.0,60,0.00,OVC,,0.00,WeatherDisplay:10.37,2013-01-05 00:30:00,
2013-01-04 20:00:00,32.9,20.1,29.81,WSW,240,1.0,10.0,59,0.00,OVC,,0.00,WeatherDisplay:10.37,2013-01-05 01:00:00,
2013-01-04 20:30:00,32.9,20.5,29.81,WSW,254,1.0,9.0,60,0.00,OVC,,0.00,WeatherDisplay:10.37,2013-01-05 01:30:00,
2013-01-04 21:00:00,33.4,20.2,29.81,WSW,258,2.0,12.0,58,0.00,OVC,,0.00,WeatherDisplay:10.37,2013-01-05 02:00:00,
2013-01-04 21:30:00,33.8,20.6,29.80,West,266,6.0,12.0,58,0.00,OVC,,0.00,WeatherDisplay:10.37,2013-01-05 02:30:00,
2013-01-04 22:00:00,34.1,20.4,29.81,West,271,1.0,13.0,57,0.00,OVC,,0.00,WeatherDisplay:10.37,2013-01-05 03:00:00,
2013-01-04 22:30:00,33.8,20.2,29.81,West,269,2.0,18.0,57,0.00,OVC,,0.00,WeatherDisplay:10.37,2013-01-05 03:30:00,
2013-01-04 23:00:00,32.5,19.7,29.81,WSW,258,1.0,14.0,59,0.00,OVC,,0.00,WeatherDisplay:10.37,2013-01-05 04:00:00,
2013-01-04 23:30:00,32.6,20.2,29.80,West,261,2.0,14.0,60,0.00,BKN,,0.00,WeatherDisplay:10.37,2013-01-05 04:30:00,